sensor_id;sensor_type;location;lat;lon;timestamp;P1;durP1;ratioP1;P2;durP2;ratioP2
22191;SDS011;11261;52.456;10.850;2022-09-09T00:01:59;2.50;;;2.08;;
22191;SDS011;11261;52.456;10.850;2022-09-09T00:04:33;3.45;;;1.60;;
22191;SDS011;11261;52.456;10.850;2022-09-09T00:07:03;1.80;;;1.42;;
22191;SDS011;11261;52.456;10.850;2022-09-09T00:09:39;5.38;;;2.25;;
22191;SDS011;11261;52.456;10.850;2022-09-09T00:12:16;2.28;;;1.70;;
22191;SDS011;11261;52.456;10.850;2022-09-09T00:14:50;2.22;;;1.45;;
22191;SDS011;11261;52.456;10.850;2022-09-09T00:17:26;3.60;;;2.88;;
22191;SDS011;11261;52.456;10.850;2022-09-09T00:20:09;2.60;;;1.90;;
22191;SDS011;11261;52.456;10.850;2022-09-09T00:22:42;1.65;;;1.33;;
22191;SDS011;11261;52.456;10.850;2022-09-09T00:25:17;2.00;;;1.40;;
22191;SDS011;11261;52.456;10.850;2022-09-09T00:27:53;2.15;;;1.35;;
22191;SDS011;11261;52.456;10.850;2022-09-09T00:30:23;3.17;;;1.20;;
22191;SDS011;11261;52.456;10.850;2022-09-09T00:32:54;1.63;;;1.17;;
22191;SDS011;11261;52.456;10.850;2022-09-09T00:35:27;1.75;;;1.23;;
22191;SDS011;11261;52.456;10.850;2022-09-09T00:37:59;1.67;;;1.10;;
22191;SDS011;11261;52.456;10.850;2022-09-09T00:40:31;1.30;;;1.13;;
22191;SDS011;11261;52.456;10.850;2022-09-09T00:43:09;2.90;;;1.27;;
22191;SDS011;11261;52.456;10.850;2022-09-09T00:45:52;1.80;;;1.13;;
22191;SDS011;11261;52.456;10.850;2022-09-09T00:48:32;2.08;;;1.13;;
22191;SDS011;11261;52.456;10.850;2022-09-09T00:51:09;1.60;;;0.88;;
22191;SDS011;11261;52.456;10.850;2022-09-09T00:53:53;1.20;;;1.05;;
22191;SDS011;11261;52.456;10.850;2022-09-09T00:56:41;1.20;;;1.10;;
22191;SDS011;11261;52.456;10.850;2022-09-09T00:59:16;1.30;;;1.17;;
22191;SDS011;11261;52.456;10.850;2022-09-09T01:01:53;2.78;;;1.20;;
22191;SDS011;11261;52.456;10.850;2022-09-09T01:04:25;1.40;;;1.08;;
22191;SDS011;11261;52.456;10.850;2022-09-09T01:06:59;1.50;;;0.93;;
22191;SDS011;11261;52.456;10.850;2022-09-09T01:09:38;1.38;;;1.20;;
22191;SDS011;11261;52.456;10.850;2022-09-09T01:12:25;1.08;;;0.82;;
22191;SDS011;11261;52.456;10.850;2022-09-09T01:15:03;2.15;;;1.10;;
22191;SDS011;11261;52.456;10.850;2022-09-09T01:17:37;1.45;;;1.10;;
22191;SDS011;11261;52.456;10.850;2022-09-09T01:20:19;2.40;;;1.08;;
22191;SDS011;11261;52.456;10.850;2022-09-09T01:23:04;2.42;;;0.95;;
22191;SDS011;11261;52.456;10.850;2022-09-09T01:28:41;3.90;;;1.15;;
22191;SDS011;11261;52.456;10.850;2022-09-09T01:31:11;2.65;;;0.80;;
22191;SDS011;11261;52.456;10.850;2022-09-09T01:33:44;2.25;;;1.00;;
22191;SDS011;11261;52.456;10.850;2022-09-09T01:36:12;0.90;;;0.90;;
22191;SDS011;11261;52.456;10.850;2022-09-09T01:38:47;1.17;;;0.75;;
22191;SDS011;11261;52.456;10.850;2022-09-09T01:41:16;2.53;;;0.90;;
22191;SDS011;11261;52.456;10.850;2022-09-09T01:43:44;1.63;;;0.90;;
22191;SDS011;11261;52.456;10.850;2022-09-09T01:46:13;1.90;;;0.90;;
22191;SDS011;11261;52.456;10.850;2022-09-09T01:48:42;2.33;;;0.70;;
22191;SDS011;11261;52.456;10.850;2022-09-09T01:51:11;0.93;;;0.68;;
22191;SDS011;11261;52.456;10.850;2022-09-09T01:53:39;1.38;;;0.88;;
22191;SDS011;11261;52.456;10.850;2022-09-09T01:56:12;2.55;;;0.70;;
22191;SDS011;11261;52.456;10.850;2022-09-09T01:59:01;0.70;;;0.70;;
22191;SDS011;11261;52.456;10.850;2022-09-09T02:01:39;0.60;;;0.60;;
22191;SDS011;11261;52.456;10.850;2022-09-09T02:04:18;1.25;;;0.80;;
22191;SDS011;11261;52.456;10.850;2022-09-09T02:06:55;0.70;;;0.70;;
22191;SDS011;11261;52.456;10.850;2022-09-09T02:09:24;1.80;;;0.68;;
22191;SDS011;11261;52.456;10.850;2022-09-09T02:11:55;0.95;;;0.82;;
22191;SDS011;11261;52.456;10.850;2022-09-09T02:14:30;1.00;;;0.80;;
22191;SDS011;11261;52.456;10.850;2022-09-09T02:17:03;2.65;;;0.60;;
22191;SDS011;11261;52.456;10.850;2022-09-09T02:19:38;1.60;;;0.70;;
22191;SDS011;11261;52.456;10.850;2022-09-09T02:22:12;1.70;;;0.60;;
22191;SDS011;11261;52.456;10.850;2022-09-09T02:24:40;2.00;;;0.80;;
22191;SDS011;11261;52.456;10.850;2022-09-09T02:27:10;0.75;;;0.70;;
22191;SDS011;11261;52.456;10.850;2022-09-09T02:29:39;5.85;;;1.08;;
22191;SDS011;11261;52.456;10.850;2022-09-09T02:32:11;2.47;;;0.85;;
22191;SDS011;11261;52.456;10.850;2022-09-09T02:34:44;1.30;;;0.75;;
22191;SDS011;11261;52.456;10.850;2022-09-09T02:37:15;1.10;;;0.80;;
22191;SDS011;11261;52.456;10.850;2022-09-09T02:39:47;2.03;;;0.90;;
22191;SDS011;11261;52.456;10.850;2022-09-09T02:42:17;1.20;;;0.85;;
22191;SDS011;11261;52.456;10.850;2022-09-09T02:44:45;1.75;;;0.77;;
22191;SDS011;11261;52.456;10.850;2022-09-09T02:47:16;1.30;;;1.05;;
22191;SDS011;11261;52.456;10.850;2022-09-09T02:49:55;0.68;;;0.68;;
22191;SDS011;11261;52.456;10.850;2022-09-09T02:52:34;2.45;;;0.88;;
22191;SDS011;11261;52.456;10.850;2022-09-09T02:55:09;2.30;;;0.90;;
22191;SDS011;11261;52.456;10.850;2022-09-09T02:57:46;1.67;;;0.95;;
22191;SDS011;11261;52.456;10.850;2022-09-09T03:00:15;0.65;;;0.60;;
22191;SDS011;11261;52.456;10.850;2022-09-09T03:02:50;1.77;;;0.88;;
22191;SDS011;11261;52.456;10.850;2022-09-09T03:05:20;1.13;;;0.85;;
22191;SDS011;11261;52.456;10.850;2022-09-09T03:07:48;1.08;;;0.70;;
22191;SDS011;11261;52.456;10.850;2022-09-09T03:10:16;1.27;;;0.60;;
22191;SDS011;11261;52.456;10.850;2022-09-09T03:12:46;3.00;;;0.75;;
22191;SDS011;11261;52.456;10.850;2022-09-09T03:15:15;1.27;;;0.70;;
22191;SDS011;11261;52.456;10.850;2022-09-09T03:17:43;0.82;;;0.80;;
22191;SDS011;11261;52.456;10.850;2022-09-09T03:20:11;1.17;;;0.80;;
22191;SDS011;11261;52.456;10.850;2022-09-09T03:22:39;2.42;;;0.90;;
22191;SDS011;11261;52.456;10.850;2022-09-09T03:25:07;2.35;;;0.90;;
22191;SDS011;11261;52.456;10.850;2022-09-09T03:27:36;2.78;;;1.00;;
22191;SDS011;11261;52.456;10.850;2022-09-09T03:30:06;1.10;;;0.90;;
22191;SDS011;11261;52.456;10.850;2022-09-09T03:32:35;0.82;;;0.80;;
22191;SDS011;11261;52.456;10.850;2022-09-09T03:35:04;4.13;;;0.93;;
22191;SDS011;11261;52.456;10.850;2022-09-09T03:37:32;1.88;;;0.73;;
22191;SDS011;11261;52.456;10.850;2022-09-09T03:40:01;1.50;;;1.00;;
22191;SDS011;11261;52.456;10.850;2022-09-09T03:42:30;0.98;;;0.82;;
22191;SDS011;11261;52.456;10.850;2022-09-09T03:44:58;1.33;;;0.80;;
22191;SDS011;11261;52.456;10.850;2022-09-09T03:47:27;1.25;;;0.70;;
22191;SDS011;11261;52.456;10.850;2022-09-09T03:49:56;0.73;;;0.73;;
22191;SDS011;11261;52.456;10.850;2022-09-09T03:52:24;1.13;;;0.70;;
22191;SDS011;11261;52.456;10.850;2022-09-09T03:54:52;2.55;;;0.70;;
22191;SDS011;11261;52.456;10.850;2022-09-09T03:57:23;0.68;;;0.68;;
22191;SDS011;11261;52.456;10.850;2022-09-09T03:59:51;2.45;;;0.70;;
22191;SDS011;11261;52.456;10.850;2022-09-09T04:02:19;4.38;;;0.70;;
22191;SDS011;11261;52.456;10.850;2022-09-09T04:04:49;1.30;;;0.82;;
22191;SDS011;11261;52.456;10.850;2022-09-09T04:07:17;1.80;;;0.82;;
22191;SDS011;11261;52.456;10.850;2022-09-09T04:09:45;1.30;;;0.93;;
22191;SDS011;11261;52.456;10.850;2022-09-09T04:12:13;1.17;;;0.90;;
22191;SDS011;11261;52.456;10.850;2022-09-09T04:14:43;2.15;;;0.90;;
22191;SDS011;11261;52.456;10.850;2022-09-09T04:17:11;1.52;;;1.13;;
22191;SDS011;11261;52.456;10.850;2022-09-09T04:19:39;0.85;;;0.77;;
22191;SDS011;11261;52.456;10.850;2022-09-09T04:22:10;1.33;;;1.15;;
22191;SDS011;11261;52.456;10.850;2022-09-09T04:24:38;1.10;;;1.00;;
22191;SDS011;11261;52.456;10.850;2022-09-09T04:27:11;1.02;;;0.93;;
22191;SDS011;11261;52.456;10.850;2022-09-09T04:29:39;2.83;;;1.00;;
22191;SDS011;11261;52.456;10.850;2022-09-09T04:32:08;5.68;;;1.40;;
22191;SDS011;11261;52.456;10.850;2022-09-09T04:34:36;5.57;;;1.35;;
22191;SDS011;11261;52.456;10.850;2022-09-09T04:37:04;2.83;;;1.60;;
22191;SDS011;11261;52.456;10.850;2022-09-09T04:39:34;8.77;;;1.67;;
22191;SDS011;11261;52.456;10.850;2022-09-09T04:42:02;6.80;;;1.50;;
22191;SDS011;11261;52.456;10.850;2022-09-09T04:44:30;2.38;;;1.27;;
22191;SDS011;11261;52.456;10.850;2022-09-09T04:46:58;1.52;;;1.08;;
22191;SDS011;11261;52.456;10.850;2022-09-09T04:49:27;4.63;;;0.93;;
22191;SDS011;11261;52.456;10.850;2022-09-09T04:51:57;1.70;;;0.70;;
22191;SDS011;11261;52.456;10.850;2022-09-09T04:54:25;2.85;;;1.00;;
22191;SDS011;11261;52.456;10.850;2022-09-09T04:56:56;1.45;;;1.00;;
22191;SDS011;11261;52.456;10.850;2022-09-09T04:59:24;1.38;;;0.90;;
22191;SDS011;11261;52.456;10.850;2022-09-09T05:01:52;11.43;;;1.45;;
22191;SDS011;11261;52.456;10.850;2022-09-09T05:04:22;2.78;;;1.00;;
22191;SDS011;11261;52.456;10.850;2022-09-09T05:06:50;5.03;;;1.15;;
22191;SDS011;11261;52.456;10.850;2022-09-09T05:09:18;3.60;;;1.20;;
22191;SDS011;11261;52.456;10.850;2022-09-09T05:11:46;7.30;;;1.20;;
22191;SDS011;11261;52.456;10.850;2022-09-09T05:14:16;4.80;;;1.10;;
22191;SDS011;11261;52.456;10.850;2022-09-09T05:16:44;1.60;;;1.02;;
22191;SDS011;11261;52.456;10.850;2022-09-09T05:19:13;2.35;;;1.00;;
22191;SDS011;11261;52.456;10.850;2022-09-09T05:21:41;8.00;;;1.50;;
22191;SDS011;11261;52.456;10.850;2022-09-09T05:24:09;4.93;;;0.93;;
22191;SDS011;11261;52.456;10.850;2022-09-09T05:26:38;1.00;;;0.90;;
22191;SDS011;11261;52.456;10.850;2022-09-09T05:29:06;2.72;;;1.10;;
22191;SDS011;11261;52.456;10.850;2022-09-09T05:31:36;3.30;;;0.93;;
22191;SDS011;11261;52.456;10.850;2022-09-09T05:34:05;1.90;;;1.17;;
22191;SDS011;11261;52.456;10.850;2022-09-09T05:36:33;1.17;;;0.80;;
22191;SDS011;11261;52.456;10.850;2022-09-09T05:39:01;0.95;;;0.77;;
22191;SDS011;11261;52.456;10.850;2022-09-09T05:41:30;1.17;;;0.77;;
22191;SDS011;11261;52.456;10.850;2022-09-09T05:43:58;1.38;;;0.93;;
22191;SDS011;11261;52.456;10.850;2022-09-09T05:46:27;3.35;;;1.20;;
22191;SDS011;11261;52.456;10.850;2022-09-09T05:48:56;0.80;;;0.77;;
22191;SDS011;11261;52.456;10.850;2022-09-09T05:51:25;1.00;;;0.70;;
22191;SDS011;11261;52.456;10.850;2022-09-09T05:53:56;1.70;;;0.80;;
22191;SDS011;11261;52.456;10.850;2022-09-09T05:56:25;0.65;;;0.65;;
22191;SDS011;11261;52.456;10.850;2022-09-09T05:58:55;1.67;;;0.90;;
22191;SDS011;11261;52.456;10.850;2022-09-09T06:01:23;1.20;;;0.90;;
22191;SDS011;11261;52.456;10.850;2022-09-09T06:03:53;1.92;;;0.90;;
22191;SDS011;11261;52.456;10.850;2022-09-09T06:06:24;1.95;;;1.00;;
22191;SDS011;11261;52.456;10.850;2022-09-09T06:08:53;1.70;;;1.00;;
22191;SDS011;11261;52.456;10.850;2022-09-09T06:11:24;2.35;;;0.82;;
22191;SDS011;11261;52.456;10.850;2022-09-09T06:13:53;1.10;;;0.88;;
22191;SDS011;11261;52.456;10.850;2022-09-09T06:16:22;1.60;;;0.95;;
22191;SDS011;11261;52.456;10.850;2022-09-09T06:18:51;2.78;;;0.88;;
22191;SDS011;11261;52.456;10.850;2022-09-09T06:21:22;1.42;;;0.70;;
22191;SDS011;11261;52.456;10.850;2022-09-09T06:23:52;1.77;;;0.80;;
22191;SDS011;11261;52.456;10.850;2022-09-09T06:26:26;1.35;;;0.95;;
22191;SDS011;11261;52.456;10.850;2022-09-09T06:28:57;1.90;;;0.75;;
22191;SDS011;11261;52.456;10.850;2022-09-09T06:31:26;4.82;;;0.98;;
22191;SDS011;11261;52.456;10.850;2022-09-09T06:33:57;4.43;;;1.33;;
22191;SDS011;11261;52.456;10.850;2022-09-09T06:36:28;1.17;;;0.98;;
22191;SDS011;11261;52.456;10.850;2022-09-09T06:38:58;2.58;;;1.20;;
22191;SDS011;11261;52.456;10.850;2022-09-09T06:41:27;2.42;;;1.00;;
22191;SDS011;11261;52.456;10.850;2022-09-09T06:43:56;3.42;;;0.95;;
22191;SDS011;11261;52.456;10.850;2022-09-09T06:46:25;1.67;;;0.80;;
22191;SDS011;11261;52.456;10.850;2022-09-09T06:48:55;2.78;;;0.90;;
22191;SDS011;11261;52.456;10.850;2022-09-09T06:51:25;1.40;;;0.90;;
22191;SDS011;11261;52.456;10.850;2022-09-09T06:53:56;1.58;;;1.40;;
22191;SDS011;11261;52.456;10.850;2022-09-09T06:56:26;0.88;;;0.80;;
22191;SDS011;11261;52.456;10.850;2022-09-09T06:58:55;0.70;;;0.70;;
22191;SDS011;11261;52.456;10.850;2022-09-09T07:01:26;1.63;;;0.90;;
22191;SDS011;11261;52.456;10.850;2022-09-09T07:03:57;1.25;;;0.88;;
22191;SDS011;11261;52.456;10.850;2022-09-09T07:06:27;4.35;;;1.23;;
22191;SDS011;11261;52.456;10.850;2022-09-09T07:08:58;3.00;;;0.73;;
22191;SDS011;11261;52.456;10.850;2022-09-09T07:11:28;2.83;;;0.90;;
22191;SDS011;11261;52.456;10.850;2022-09-09T07:13:58;2.28;;;0.80;;
22191;SDS011;11261;52.456;10.850;2022-09-09T07:16:27;2.47;;;0.73;;
22191;SDS011;11261;52.456;10.850;2022-09-09T07:18:57;1.77;;;1.00;;
22191;SDS011;11261;52.456;10.850;2022-09-09T07:21:27;3.83;;;0.85;;
22191;SDS011;11261;52.456;10.850;2022-09-09T07:23:58;2.65;;;0.88;;
22191;SDS011;11261;52.456;10.850;2022-09-09T07:26:27;1.27;;;0.80;;
22191;SDS011;11261;52.456;10.850;2022-09-09T07:28:57;2.10;;;1.02;;
22191;SDS011;11261;52.456;10.850;2022-09-09T07:31:26;1.27;;;0.80;;
22191;SDS011;11261;52.456;10.850;2022-09-09T07:33:57;1.10;;;0.88;;
22191;SDS011;11261;52.456;10.850;2022-09-09T07:36:27;2.30;;;1.05;;
22191;SDS011;11261;52.456;10.850;2022-09-09T07:39:01;2.85;;;1.02;;
22191;SDS011;11261;52.456;10.850;2022-09-09T07:41:32;2.65;;;0.85;;
22191;SDS011;11261;52.456;10.850;2022-09-09T07:44:05;0.60;;;0.55;;
22191;SDS011;11261;52.456;10.850;2022-09-09T07:46:35;1.33;;;0.82;;
22191;SDS011;11261;52.456;10.850;2022-09-09T07:49:06;2.60;;;0.70;;
22191;SDS011;11261;52.456;10.850;2022-09-09T07:51:35;2.70;;;0.73;;
22191;SDS011;11261;52.456;10.850;2022-09-09T07:54:07;1.45;;;0.82;;
22191;SDS011;11261;52.456;10.850;2022-09-09T07:56:37;2.55;;;0.80;;
22191;SDS011;11261;52.456;10.850;2022-09-09T07:59:07;2.83;;;0.85;;
22191;SDS011;11261;52.456;10.850;2022-09-09T08:01:37;2.20;;;1.10;;
22191;SDS011;11261;52.456;10.850;2022-09-09T08:04:08;2.13;;;1.05;;
22191;SDS011;11261;52.456;10.850;2022-09-09T08:06:41;5.03;;;0.85;;
22191;SDS011;11261;52.456;10.850;2022-09-09T08:09:12;2.05;;;1.10;;
22191;SDS011;11261;52.456;10.850;2022-09-09T08:11:41;1.77;;;0.88;;
22191;SDS011;11261;52.456;10.850;2022-09-09T08:14:10;4.32;;;0.93;;
22191;SDS011;11261;52.456;10.850;2022-09-09T08:16:40;2.65;;;0.90;;
22191;SDS011;11261;52.456;10.850;2022-09-09T08:19:09;2.22;;;0.93;;
22191;SDS011;11261;52.456;10.850;2022-09-09T08:21:38;1.92;;;1.00;;
22191;SDS011;11261;52.456;10.850;2022-09-09T08:24:07;0.85;;;0.70;;
22191;SDS011;11261;52.456;10.850;2022-09-09T08:26:39;0.75;;;0.70;;
22191;SDS011;11261;52.456;10.850;2022-09-09T08:29:09;3.33;;;0.93;;
22191;SDS011;11261;52.456;10.850;2022-09-09T08:31:39;2.03;;;0.90;;
22191;SDS011;11261;52.456;10.850;2022-09-09T08:34:09;1.48;;;0.65;;
22191;SDS011;11261;52.456;10.850;2022-09-09T08:36:37;0.80;;;0.60;;
22191;SDS011;11261;52.456;10.850;2022-09-09T08:39:09;3.42;;;0.70;;
22191;SDS011;11261;52.456;10.850;2022-09-09T08:44:46;3.20;;;0.75;;
22191;SDS011;11261;52.456;10.850;2022-09-09T08:47:23;2.25;;;1.02;;
22191;SDS011;11261;52.456;10.850;2022-09-09T08:50:04;0.93;;;0.50;;
22191;SDS011;11261;52.456;10.850;2022-09-09T08:52:45;1.90;;;0.63;;
22191;SDS011;11261;52.456;10.850;2022-09-09T08:55:22;4.78;;;1.13;;
22191;SDS011;11261;52.456;10.850;2022-09-09T08:58:01;2.75;;;0.57;;
22191;SDS011;11261;52.456;10.850;2022-09-09T09:00:40;1.98;;;0.70;;
22191;SDS011;11261;52.456;10.850;2022-09-09T09:03:28;2.85;;;0.75;;
22191;SDS011;11261;52.456;10.850;2022-09-09T09:06:06;0.88;;;0.80;;
22191;SDS011;11261;52.456;10.850;2022-09-09T09:08:46;5.22;;;1.00;;
22191;SDS011;11261;52.456;10.850;2022-09-09T09:11:20;3.00;;;1.15;;
22191;SDS011;11261;52.456;10.850;2022-09-09T09:13:50;2.95;;;0.80;;
22191;SDS011;11261;52.456;10.850;2022-09-09T09:16:25;1.20;;;0.73;;
22191;SDS011;11261;52.456;10.850;2022-09-09T09:18:58;1.98;;;0.90;;
22191;SDS011;11261;52.456;10.850;2022-09-09T09:21:29;3.33;;;0.98;;
22191;SDS011;11261;52.456;10.850;2022-09-09T09:24:04;2.60;;;0.85;;
22191;SDS011;11261;52.456;10.850;2022-09-09T09:26:47;1.48;;;1.00;;
22191;SDS011;11261;52.456;10.850;2022-09-09T09:29:17;2.70;;;0.85;;
22191;SDS011;11261;52.456;10.850;2022-09-09T09:31:48;1.42;;;0.80;;
22191;SDS011;11261;52.456;10.850;2022-09-09T09:34:20;1.38;;;0.70;;
22191;SDS011;11261;52.456;10.850;2022-09-09T09:36:52;2.80;;;0.73;;
22191;SDS011;11261;52.456;10.850;2022-09-09T09:39:22;1.60;;;0.70;;
22191;SDS011;11261;52.456;10.850;2022-09-09T09:42:12;2.60;;;0.80;;
22191;SDS011;11261;52.456;10.850;2022-09-09T09:44:48;3.92;;;0.82;;
22191;SDS011;11261;52.456;10.850;2022-09-09T09:47:16;1.95;;;0.93;;
22191;SDS011;11261;52.456;10.850;2022-09-09T09:49:52;1.48;;;0.90;;
22191;SDS011;11261;52.456;10.850;2022-09-09T09:52:22;1.23;;;0.80;;
22191;SDS011;11261;52.456;10.850;2022-09-09T09:54:51;0.77;;;0.77;;
22191;SDS011;11261;52.456;10.850;2022-09-09T09:57:22;2.22;;;1.00;;
22191;SDS011;11261;52.456;10.850;2022-09-09T10:00:03;4.00;;;1.05;;
22191;SDS011;11261;52.456;10.850;2022-09-09T10:02:40;3.13;;;1.10;;
22191;SDS011;11261;52.456;10.850;2022-09-09T10:05:12;1.10;;;0.90;;
22191;SDS011;11261;52.456;10.850;2022-09-09T10:07:43;2.80;;;1.10;;
22191;SDS011;11261;52.456;10.850;2022-09-09T10:10:13;1.08;;;0.70;;
22191;SDS011;11261;52.456;10.850;2022-09-09T10:12:51;1.33;;;0.50;;
22191;SDS011;11261;52.456;10.850;2022-09-09T10:15:34;2.70;;;0.93;;
22191;SDS011;11261;52.456;10.850;2022-09-09T10:18:13;2.20;;;1.20;;
22191;SDS011;11261;52.456;10.850;2022-09-09T10:20:51;2.47;;;0.90;;
22191;SDS011;11261;52.456;10.850;2022-09-09T10:23:32;1.98;;;0.77;;
22191;SDS011;11261;52.456;10.850;2022-09-09T10:26:16;1.92;;;0.90;;
22191;SDS011;11261;52.456;10.850;2022-09-09T10:29:12;3.05;;;0.85;;
22191;SDS011;11261;52.456;10.850;2022-09-09T10:31:56;0.98;;;0.63;;
22191;SDS011;11261;52.456;10.850;2022-09-09T10:34:39;1.73;;;0.85;;
22191;SDS011;11261;52.456;10.850;2022-09-09T10:37:23;5.32;;;1.00;;
22191;SDS011;11261;52.456;10.850;2022-09-09T10:40:08;1.00;;;0.50;;
22191;SDS011;11261;52.456;10.850;2022-09-09T10:42:52;1.52;;;0.60;;
22191;SDS011;11261;52.456;10.850;2022-09-09T10:45:27;1.77;;;0.68;;
22191;SDS011;11261;52.456;10.850;2022-09-09T10:48:18;2.70;;;0.63;;
22191;SDS011;11261;52.456;10.850;2022-09-09T10:51:00;2.45;;;0.60;;
22191;SDS011;11261;52.456;10.850;2022-09-09T10:53:42;1.35;;;0.52;;
22191;SDS011;11261;52.456;10.850;2022-09-09T10:56:16;0.65;;;0.45;;
22191;SDS011;11261;52.456;10.850;2022-09-09T10:58:47;1.45;;;0.50;;
22191;SDS011;11261;52.456;10.850;2022-09-09T11:01:21;3.50;;;0.60;;
22191;SDS011;11261;52.456;10.850;2022-09-09T11:03:54;2.55;;;0.57;;
22191;SDS011;11261;52.456;10.850;2022-09-09T11:06:30;0.88;;;0.50;;
22191;SDS011;11261;52.456;10.850;2022-09-09T11:09:02;3.10;;;0.70;;
22191;SDS011;11261;52.456;10.850;2022-09-09T11:11:34;2.08;;;0.60;;
22191;SDS011;11261;52.456;10.850;2022-09-09T11:14:09;1.17;;;0.47;;
22191;SDS011;11261;52.456;10.850;2022-09-09T11:16:44;3.08;;;0.70;;
22191;SDS011;11261;52.456;10.850;2022-09-09T11:19:21;1.67;;;0.60;;
22191;SDS011;11261;52.456;10.850;2022-09-09T11:21:55;3.17;;;0.60;;
22191;SDS011;11261;52.456;10.850;2022-09-09T11:24:27;2.40;;;0.70;;
22191;SDS011;11261;52.456;10.850;2022-09-09T11:27:01;1.60;;;0.77;;
22191;SDS011;11261;52.456;10.850;2022-09-09T11:32:31;1.25;;;0.57;;
22191;SDS011;11261;52.456;10.850;2022-09-09T11:35:20;1.98;;;0.50;;
22191;SDS011;11261;52.456;10.850;2022-09-09T11:38:05;1.95;;;0.40;;
22191;SDS011;11261;52.456;10.850;2022-09-09T11:40:44;2.95;;;0.75;;
22191;SDS011;11261;52.456;10.850;2022-09-09T11:43:13;2.78;;;0.65;;
22191;SDS011;11261;52.456;10.850;2022-09-09T11:45:50;2.25;;;0.60;;
22191;SDS011;11261;52.456;10.850;2022-09-09T11:48:27;2.47;;;0.70;;
22191;SDS011;11261;52.456;10.850;2022-09-09T11:51:02;2.13;;;0.68;;
22191;SDS011;11261;52.456;10.850;2022-09-09T11:53:47;2.85;;;0.80;;
22191;SDS011;11261;52.456;10.850;2022-09-09T11:56:26;1.23;;;0.43;;
22191;SDS011;11261;52.456;10.850;2022-09-09T11:58:57;1.10;;;0.57;;
22191;SDS011;11261;52.456;10.850;2022-09-09T12:01:30;3.08;;;0.70;;
22191;SDS011;11261;52.456;10.850;2022-09-09T12:04:15;1.25;;;0.50;;
22191;SDS011;11261;52.456;10.850;2022-09-09T12:06:58;1.67;;;0.68;;
22191;SDS011;11261;52.456;10.850;2022-09-09T12:09:32;1.05;;;0.60;;
22191;SDS011;11261;52.456;10.850;2022-09-09T12:15:17;1.70;;;0.50;;
22191;SDS011;11261;52.456;10.850;2022-09-09T12:17:54;2.63;;;0.70;;
22191;SDS011;11261;52.456;10.850;2022-09-09T12:20:31;3.08;;;0.73;;
22191;SDS011;11261;52.456;10.850;2022-09-09T12:23:13;1.10;;;0.60;;
22191;SDS011;11261;52.456;10.850;2022-09-09T12:25:56;1.65;;;0.63;;
22191;SDS011;11261;52.456;10.850;2022-09-09T12:28:38;3.90;;;0.68;;
22191;SDS011;11261;52.456;10.850;2022-09-09T12:31:12;1.13;;;0.60;;
22191;SDS011;11261;52.456;10.850;2022-09-09T12:33:45;2.10;;;0.80;;
22191;SDS011;11261;52.456;10.850;2022-09-09T12:36:15;3.58;;;0.70;;
22191;SDS011;11261;52.456;10.850;2022-09-09T12:38:48;2.45;;;0.63;;
22191;SDS011;11261;52.456;10.850;2022-09-09T12:41:21;1.67;;;0.93;;
22191;SDS011;11261;52.456;10.850;2022-09-09T12:43:51;2.78;;;0.73;;
22191;SDS011;11261;52.456;10.850;2022-09-09T12:46:31;1.85;;;0.57;;
22191;SDS011;11261;52.456;10.850;2022-09-09T12:49:03;0.60;;;0.52;;
22191;SDS011;11261;52.456;10.850;2022-09-09T12:51:32;2.15;;;0.68;;
22191;SDS011;11261;52.456;10.850;2022-09-09T12:54:02;1.00;;;0.63;;
22191;SDS011;11261;52.456;10.850;2022-09-09T12:56:32;2.85;;;0.60;;
22191;SDS011;11261;52.456;10.850;2022-09-09T12:59:01;2.40;;;0.85;;
22191;SDS011;11261;52.456;10.850;2022-09-09T13:01:30;2.78;;;0.60;;
22191;SDS011;11261;52.456;10.850;2022-09-09T13:04:00;1.98;;;0.63;;
22191;SDS011;11261;52.456;10.850;2022-09-09T13:06:29;5.18;;;0.60;;
22191;SDS011;11261;52.456;10.850;2022-09-09T13:08:59;1.40;;;0.60;;
22191;SDS011;11261;52.456;10.850;2022-09-09T13:11:31;4.18;;;0.70;;
22191;SDS011;11261;52.456;10.850;2022-09-09T13:14:04;3.83;;;0.82;;
22191;SDS011;11261;52.456;10.850;2022-09-09T13:16:35;1.50;;;0.57;;
22191;SDS011;11261;52.456;10.850;2022-09-09T13:19:08;3.28;;;0.70;;
22191;SDS011;11261;52.456;10.850;2022-09-09T13:21:42;0.95;;;0.63;;
22191;SDS011;11261;52.456;10.850;2022-09-09T13:24:22;1.50;;;0.73;;
22191;SDS011;11261;52.456;10.850;2022-09-09T13:26:57;3.17;;;0.70;;
22191;SDS011;11261;52.456;10.850;2022-09-09T13:29:28;1.95;;;0.60;;
22191;SDS011;11261;52.456;10.850;2022-09-09T13:32:03;2.15;;;0.68;;
22191;SDS011;11261;52.456;10.850;2022-09-09T13:34:33;2.78;;;0.68;;
22191;SDS011;11261;52.456;10.850;2022-09-09T13:37:03;1.88;;;0.80;;
22191;SDS011;11261;52.456;10.850;2022-09-09T13:39:33;1.25;;;0.47;;
22191;SDS011;11261;52.456;10.850;2022-09-09T13:42:05;1.90;;;0.70;;
22191;SDS011;11261;52.456;10.850;2022-09-09T13:44:49;1.70;;;0.60;;
22191;SDS011;11261;52.456;10.850;2022-09-09T13:47:17;1.83;;;0.68;;
22191;SDS011;11261;52.456;10.850;2022-09-09T13:49:47;2.30;;;0.70;;
22191;SDS011;11261;52.456;10.850;2022-09-09T13:52:15;4.53;;;0.90;;
22191;SDS011;11261;52.456;10.850;2022-09-09T13:54:46;2.90;;;0.60;;
22191;SDS011;11261;52.456;10.850;2022-09-09T13:57:17;3.65;;;0.82;;
22191;SDS011;11261;52.456;10.850;2022-09-09T13:59:47;3.75;;;0.70;;
22191;SDS011;11261;52.456;10.850;2022-09-09T14:02:31;3.00;;;0.70;;
22191;SDS011;11261;52.456;10.850;2022-09-09T14:05:00;3.70;;;0.80;;
22191;SDS011;11261;52.456;10.850;2022-09-09T14:07:28;2.72;;;0.73;;
22191;SDS011;11261;52.456;10.850;2022-09-09T14:09:56;0.93;;;0.60;;
22191;SDS011;11261;52.456;10.850;2022-09-09T14:12:28;3.00;;;0.80;;
22191;SDS011;11261;52.456;10.850;2022-09-09T14:14:56;1.35;;;0.70;;
22191;SDS011;11261;52.456;10.850;2022-09-09T14:17:25;2.15;;;0.88;;
22191;SDS011;11261;52.456;10.850;2022-09-09T14:19:58;1.95;;;0.70;;
22191;SDS011;11261;52.456;10.850;2022-09-09T14:22:26;2.28;;;0.82;;
22191;SDS011;11261;52.456;10.850;2022-09-09T14:24:54;1.73;;;0.80;;
22191;SDS011;11261;52.456;10.850;2022-09-09T14:27:23;3.00;;;0.73;;
22191;SDS011;11261;52.456;10.850;2022-09-09T14:29:54;2.40;;;0.88;;
22191;SDS011;11261;52.456;10.850;2022-09-09T14:32:22;0.85;;;0.55;;
22191;SDS011;11261;52.456;10.850;2022-09-09T14:34:50;2.05;;;0.60;;
22191;SDS011;11261;52.456;10.850;2022-09-09T14:37:18;1.92;;;0.77;;
22191;SDS011;11261;52.456;10.850;2022-09-09T14:39:46;4.28;;;1.58;;
22191;SDS011;11261;52.456;10.850;2022-09-09T14:42:16;3.88;;;1.52;;
22191;SDS011;11261;52.456;10.850;2022-09-09T14:44:44;2.90;;;1.00;;
22191;SDS011;11261;52.456;10.850;2022-09-09T14:47:15;2.42;;;0.73;;
22191;SDS011;11261;52.456;10.850;2022-09-09T14:49:43;1.58;;;0.73;;
22191;SDS011;11261;52.456;10.850;2022-09-09T14:52:12;2.95;;;0.90;;
22191;SDS011;11261;52.456;10.850;2022-09-09T14:54:40;1.20;;;0.77;;
22191;SDS011;11261;52.456;10.850;2022-09-09T14:57:08;2.78;;;0.82;;
22191;SDS011;11261;52.456;10.850;2022-09-09T14:59:36;2.40;;;0.70;;
22191;SDS011;11261;52.456;10.850;2022-09-09T15:02:04;2.50;;;0.63;;
22191;SDS011;11261;52.456;10.850;2022-09-09T15:04:35;0.93;;;0.47;;
22191;SDS011;11261;52.456;10.850;2022-09-09T15:07:03;1.83;;;0.60;;
22191;SDS011;11261;52.456;10.850;2022-09-09T15:09:32;2.17;;;0.60;;
22191;SDS011;11261;52.456;10.850;2022-09-09T15:12:00;2.83;;;0.73;;
22191;SDS011;11261;52.456;10.850;2022-09-09T15:14:29;1.35;;;0.60;;
22191;SDS011;11261;52.456;10.850;2022-09-09T15:16:57;1.50;;;0.57;;